createdAt,value
2022-10-30T00:04:33.371Z,0.007
2022-10-30T00:09:45.292Z,0.007
2022-10-30T00:14:57.309Z,0.011
2022-10-30T00:20:09.157Z,0.001
2022-10-30T00:25:21.074Z,0.001
2022-10-30T00:30:32.871Z,0
2022-10-30T00:35:44.682Z,0
2022-10-30T00:40:58.377Z,0.003
2022-10-30T00:46:09.938Z,0.003
2022-10-30T00:51:21.900Z,-0.03
2022-10-30T00:56:33.879Z,0.02
2022-10-30T01:01:45.915Z,0.001
2022-10-30T01:06:58.092Z,0
2022-10-30T01:12:09.824Z,0.005
2022-10-30T01:17:21.780Z,0.003
2022-10-30T01:22:33.558Z,0.012
2022-10-30T01:27:45.374Z,0.007
2022-10-30T01:32:57.470Z,0.001
2022-10-30T01:38:10.702Z,-0.011
2022-10-30T01:43:22.495Z,0.038
2022-10-30T01:48:34.339Z,0.01
2022-10-30T01:53:46.110Z,0.021
2022-10-30T01:58:57.902Z,-0.015
2022-10-30T02:04:09.821Z,0.022
2022-10-30T02:09:21.599Z,0.021
2022-10-30T02:14:33.539Z,0.007
2022-10-30T02:19:45.418Z,0.011
2022-10-30T02:24:57.260Z,0.01
2022-10-30T02:30:08.932Z,0.009
2022-10-30T02:35:20.646Z,0.011
2022-10-30T02:40:32.310Z,0.02
2022-10-30T02:45:44.081Z,0.011
2022-10-30T02:50:55.848Z,0.01
2022-10-30T02:56:07.585Z,-0.001
2022-10-30T03:01:19.620Z,0
2022-10-30T03:06:32.096Z,0.023
2022-10-30T03:11:43.948Z,0.001
2022-10-30T03:16:55.686Z,0.003
2022-10-30T03:22:07.520Z,0.007
2022-10-30T03:27:19.295Z,0.003
2022-10-30T03:32:31.034Z,0.007
2022-10-30T03:37:42.990Z,0.009
2022-10-30T03:42:54.833Z,-0.001
2022-10-30T03:48:07.878Z,0.007
2022-10-30T03:53:19.490Z,0.009
2022-10-30T03:58:31.271Z,0
2022-10-30T04:03:43.235Z,0.009
2022-10-30T04:08:55.039Z,0.012
2022-10-30T04:14:06.870Z,0.005
2022-10-30T04:19:18.663Z,0.005
2022-10-30T04:24:30.670Z,0.014
2022-10-30T04:29:42.162Z,0.001
2022-10-30T04:34:53.984Z,-0.012
2022-10-30T04:40:05.912Z,0.023
2022-10-30T04:45:17.595Z,0.008
2022-10-30T04:50:29.526Z,0.004
2022-10-30T04:55:41.069Z,-0.007
2022-10-30T05:00:52.907Z,0.006
2022-10-30T05:06:17.483Z,0.003
2022-10-30T05:11:29.200Z,0.003
2022-10-30T05:16:40.970Z,0.019
2022-10-30T05:21:52.754Z,0.018
2022-10-30T05:27:04.572Z,0.025
2022-10-30T05:32:16.622Z,0.011
2022-10-30T05:37:28.285Z,0.017
2022-10-30T05:42:40.018Z,0.018
2022-10-30T05:47:51.551Z,0.009
2022-10-30T05:53:03.550Z,0.01
2022-10-30T05:58:15.364Z,0.019
2022-10-30T06:03:27.086Z,0.021
2022-10-30T06:08:38.910Z,0.008
2022-10-30T06:13:50.611Z,0.012
2022-10-30T06:19:02.376Z,0.019
2022-10-30T06:24:14.108Z,0.018
2022-10-30T06:29:26.111Z,0.025
2022-10-30T06:34:37.950Z,0.014
2022-10-30T06:39:59.941Z,0.025
2022-10-30T06:45:11.633Z,0.035
2022-10-30T06:50:23.532Z,0.025
2022-10-30T06:55:35.318Z,0.011
2022-10-30T07:00:47.201Z,0.014
2022-10-30T07:05:58.935Z,0.041
2022-10-30T07:11:10.882Z,0.031
2022-10-30T07:16:22.700Z,0.031
2022-10-30T07:21:34.618Z,0.044
2022-10-30T07:26:46.602Z,0.029
2022-10-30T07:32:02.859Z,0.032
2022-10-30T07:37:18.115Z,0.001
2022-10-30T07:42:30.193Z,0.058
2022-10-30T07:47:41.967Z,0.045
2022-10-30T07:52:53.934Z,0.053
2022-10-30T07:58:05.738Z,0.05
2022-10-30T08:03:17.703Z,0.046
2022-10-30T08:08:29.626Z,0.032
2022-10-30T08:13:41.823Z,0.076
2022-10-30T08:18:53.945Z,0.06
2022-10-30T08:24:06.153Z,0.048
2022-10-30T08:29:18.157Z,0.042
2022-10-30T08:34:30.120Z,0.058
2022-10-30T08:39:42.241Z,0.055
2022-10-30T08:44:54.497Z,0.066
2022-10-30T08:50:06.573Z,0.061
2022-10-30T08:55:18.731Z,0.059
2022-10-30T09:00:30.798Z,0.055
2022-10-30T09:05:42.986Z,0.052
2022-10-30T09:10:55.007Z,0.055
2022-10-30T09:16:07.089Z,0.056
2022-10-30T09:21:19.302Z,0.06
2022-10-30T09:26:31.466Z,0.056
2022-10-30T09:31:43.741Z,0.014
2022-10-30T09:37:02.985Z,0.085
2022-10-30T09:42:15.241Z,0.071
2022-10-30T09:47:27.608Z,0.065
2022-10-30T09:52:41.495Z,0.052
2022-10-30T09:57:53.695Z,0.045
2022-10-30T10:03:05.780Z,0.061
2022-10-30T10:08:18.330Z,0.039
2022-10-30T10:13:31.628Z,0.048
2022-10-30T10:18:43.670Z,0.056
2022-10-30T10:23:56.175Z,0.043
2022-10-30T10:29:08.534Z,0.055
2022-10-30T10:34:20.938Z,0.057
2022-10-30T10:39:33.213Z,0.059
2022-10-30T10:44:45.500Z,0.056
2022-10-30T10:49:57.842Z,0.071
2022-10-30T10:55:10.306Z,0.047
2022-10-30T11:00:22.837Z,0.055
2022-10-30T11:05:35.550Z,0.166
2022-10-30T11:10:51.762Z,0.689
2022-10-30T11:16:07.387Z,0.43
2022-10-30T11:21:22.095Z,0.325
2022-10-30T11:36:59.437Z,0.143
2022-10-30T11:42:12.279Z,0.188
2022-10-30T11:47:25.663Z,0.125
2022-10-30T11:52:39.126Z,0.011
2022-10-30T11:57:51.299Z,0.125
2022-10-30T12:03:04.507Z,0.133
2022-10-30T12:13:27.742Z,0.162
2022-10-30T12:18:40.440Z,0.039
2022-10-30T12:23:53.882Z,0.053
2022-10-30T12:34:17.365Z,0.122
2022-10-30T12:39:30.479Z,-0.031
2022-10-30T12:49:54.116Z,0.017
2022-10-30T12:55:07.129Z,0.096
2022-10-30T13:00:19.349Z,0.128
2022-10-30T13:21:03.334Z,0.077
2022-10-30T13:26:15.738Z,0.088
2022-10-30T13:31:28.219Z,-0.044
2022-10-30T13:41:51.135Z,0.032
2022-10-30T13:47:03.719Z,0.076
2022-10-30T14:23:16.366Z,-0.029
2022-10-30T14:28:28.580Z,-0.048
2022-10-30T14:33:40.648Z,-0.012
2022-10-30T14:38:53.317Z,-0.027
2022-10-30T14:44:05.568Z,-0.014
2022-10-30T14:54:28.026Z,-0.012
2022-10-30T14:59:40.253Z,-0.005
2022-10-30T15:04:52.420Z,-0.007
2022-10-30T15:15:14.558Z,-0.02
2022-10-30T15:20:26.814Z,-0.02
2022-10-30T15:30:48.955Z,-0.035
2022-10-30T15:36:01.288Z,-0.015
2022-10-30T15:41:13.563Z,-0.02
2022-10-30T16:01:55.554Z,-0.026
2022-10-30T16:12:17.978Z,-0.035
2022-10-30T16:27:50.001Z,-0.047
2022-10-30T16:38:15.287Z,-0.02
2022-10-30T16:43:26.308Z,-0.042
2022-10-30T16:48:38.519Z,-0.039
2022-10-30T16:53:50.552Z,-0.006
2022-10-30T16:59:02.713Z,-0.034
2022-10-30T17:09:27.170Z,-0.027
2022-10-30T17:19:49.158Z,-0.026
2022-10-30T17:25:01.040Z,-0.03
2022-10-30T17:30:12.990Z,-0.035
2022-10-30T17:35:24.787Z,-0.031
2022-10-30T17:40:37.015Z,-0.028
2022-10-30T17:45:49.512Z,-0.031
2022-10-30T17:56:14.531Z,0.001
2022-10-30T18:01:26.096Z,-0.004
2022-10-30T18:06:59.568Z,-0.017
2022-10-30T18:12:11.472Z,-0.016
2022-10-30T18:17:23.361Z,-0.017
2022-10-30T18:22:35.200Z,-0.012
2022-10-30T18:32:57.482Z,0
2022-10-30T18:38:11.280Z,-0.005
2022-10-30T18:43:24.021Z,-0.041
2022-10-30T18:48:36.806Z,0.004
2022-10-30T18:53:48.830Z,0.002
2022-10-30T18:59:02.459Z,0.002
2022-10-30T19:04:16.819Z,0
2022-10-30T19:09:32.152Z,-0.012
2022-10-30T19:14:44.588Z,-0.001
2022-10-30T19:25:25.301Z,0.025
2022-10-30T19:30:37.081Z,-0.003
2022-10-30T19:35:48.738Z,-0.014
2022-10-30T19:41:00.768Z,-0.011
2022-10-30T19:46:12.668Z,-0.002
2022-10-30T19:51:24.438Z,-0.008
2022-10-30T19:56:36.514Z,-0.002
2022-10-30T20:01:48.396Z,-0.002
2022-10-30T20:07:02.533Z,-0.002
2022-10-30T20:12:14.108Z,0.005
2022-10-30T20:17:26.645Z,-0.001
2022-10-30T20:22:40.403Z,-0.026
2022-10-30T20:27:54.665Z,0.01
2022-10-30T20:33:06.386Z,-0.014
2022-10-30T20:38:18.376Z,0.016
2022-10-30T20:43:30.311Z,-0.002
2022-10-30T20:48:42.301Z,-0.009
2022-10-30T20:53:54.045Z,-0.03
2022-10-30T20:59:05.988Z,0.037
2022-10-30T21:04:18.055Z,0.011
2022-10-30T21:09:30.305Z,0.015
2022-10-30T21:14:42.256Z,0.008
2022-10-30T21:19:54.147Z,0
2022-10-30T21:25:05.855Z,-0.009
2022-10-30T21:30:17.870Z,0.002
2022-10-30T21:35:29.866Z,0.009
2022-10-30T21:40:41.841Z,0.001
2022-10-30T21:45:53.701Z,0.006
2022-10-30T21:51:05.650Z,-0.001
2022-10-30T21:56:18.232Z,0.012
2022-10-30T22:01:30.390Z,0.02
2022-10-30T22:06:42.754Z,0.001
2022-10-30T22:11:54.741Z,0.013
2022-10-30T22:17:06.573Z,-0.003
2022-10-30T22:22:18.623Z,-0.013
2022-10-30T22:27:30.369Z,-0.002
2022-10-30T22:32:42.197Z,0
2022-10-30T22:37:53.969Z,-0.025
2022-10-30T22:43:05.694Z,0.022
2022-10-30T22:48:17.678Z,-0.03
2022-10-30T22:53:29.362Z,0.013
2022-10-30T22:58:41.223Z,0.011
2022-10-30T23:03:52.818Z,-0.022
2022-10-30T23:09:04.351Z,0.027
2022-10-30T23:14:15.964Z,-0.01
2022-10-30T23:19:27.663Z,0.03
2022-10-30T23:24:39.506Z,0.016
2022-10-30T23:29:51.842Z,0.014
2022-10-30T23:35:03.460Z,0.016
2022-10-30T23:40:15.195Z,0.019
2022-10-30T23:45:26.976Z,-0.004
2022-10-30T23:50:38.850Z,0
2022-10-30T23:55:50.544Z,0.003
